Saturday, August 18, 2018, 3:49 PM EDT
Back to Local

KBDL, Bradley International Airport

Location: Windsor Locks, CT, United States Lat: 41.933
Local Time: 3:49 PM EDT (19:49 GMT) Lon: -72.683
Time Zone: US/Eastern Elev: 173 ft

Show me the last for .
Show Decoded

2018-08-18 15:42 METAR KBDL 181942Z 03007KT 1 1/2SM R06/2400VP6000FT TSRA BR BKN015CB OVC020
                 22/21 A2981 RMK AO2 SFC VIS 3 LTG DSNT ALQDS RAB1855 OCNL LTGICCG OHD TS OHD MOV
                 E P0162 T02170211 $ =
2018-08-18 15:27 METAR KBDL 181927Z 04016KT 3/4SM R06/1800V4000FT +TSRA BR BKN013CB OVC025 22/22
                 A2980 RMK AO2 LTG DSNT ALQDS RAB1855 PRESRR FRQ LTGICCG OHD TS OHD MOV E P0090
                 T02170217 $ =
2018-08-18 15:15 METAR KBDL 181915Z 36015KT 3/4SM R06/2400V6000FT +TSRA BR BKN022CB OVC043 23/22
                 A2978 RMK AO2 LTG DSNT ALQDS RAB1855 OCNL LTGICCG OHD TS OHD MOV E P0018
                 T02280217 $ =
2018-08-18 14:51 METAR KBDL 181851Z 23004KT 10SM TS FEW043CB BKN130 OVC250 28/22 A2977 RMK AO2
                 LTG DSNT W-NE TSB39 SLP079 OCNL LTGICCG W-N TS W-N MOV E T02830222 $ =
2018-08-18 14:40 METAR KBDL 181840Z 21007KT 10SM TS FEW025CB SCT110 BKN130 BKN250 28/23 A2976 RMK
                 AO2 LTG DSNT W-NE TSB39 OCNL LTGICCG NW-N TS NW-N MOV NE T02830228 $ =
2018-08-18 13:51 METAR KBDL 181751Z 22008KT 10SM FEW026 SCT037 BKN110 BKN250 29/22 A2976 RMK AO2
                 LTG DSNT N AND NE AND SW SLP077 CB DSNT W-N MOV NE T02890217 10294 20233 58014 $
                 =
2018-08-18 12:58 METAR KBDL 181658Z 20005KT 10SM FEW023 SCT095 BKN110 29/22 A2979 =
2018-08-18 12:51 METAR KBDL 181651Z 19005KT 10SM SCT023 BKN028 BKN100 BKN160 28/22 A2979 RMK AO2
                 SLP086 T02830222 $ =
2018-08-18 12:46 METAR KBDL 181646Z 21006KT 10SM SCT023 BKN028 BKN100 BKN160 28/22 A2979 RMK AO2
                 $ =
2018-08-18 11:51 METAR KBDL 181551Z 19005KT 10SM SCT014 SCT130 OVC160 27/23 A2981 RMK AO2 SLP092
                 T02670228 $ =
2018-08-18 10:51 METAR KBDL 181451Z 19005KT 10SM FEW014 BKN140 OVC200 25/22 A2983 RMK AO2 SLP099
                 T02500222 56002 $ =
2018-08-18 10:44 METAR KBDL 181444Z 19007KT 10SM FEW014 OVC140 26/23 A2983 RMK AO2 T02560228 $ =
2018-08-18 10:19 METAR KBDL 181419Z 20006KT 10SM FEW009 BKN014 OVC140 25/22 A2983 RMK AO2
                 T02500222 $ =
2018-08-18 09:51 METAR KBDL 181351Z 17005KT 10SM BKN010 BKN015 OVC160 24/23 A2983 RMK AO2 SLP098
                 T02440228 $ =
2018-08-18 09:27 METAR KBDL 181327Z 17004KT 10SM BKN011 BKN150 OVC180 24/23 A2982 RMK AO2
                 T02440228 $ =
2018-08-18 08:51 METAR KBDL 181251Z 00000KT 10SM FEW009 BKN150 OVC180 24/22 A2983 RMK AO2 SLP099
                 T02440222 $ =
2018-08-18 07:51 METAR KBDL 181151Z 17004KT 10SM FEW006 FEW060 SCT140 OVC180 23/22 A2983 RMK AO2
                 SLP101 60000 70043 T02330222 10233 20217 55003 $ =
2018-08-18 06:51 METAR KBDL 181051Z 17006KT 9SM FEW005 FEW060 BKN120 OVC160 22/22 A2983 RMK AO2
                 RAE21 SLP100 P0000 T02220217 $ =
2018-08-18 05:51 METAR KBDL 180951Z 19007KT 10SM -RA FEW006 SCT090 OVC110 22/22 A2984 RMK AO2
                 RAB50 SLP104 P0000 T02220217 $ =
2018-08-18 04:51 METAR KBDL 180851Z 15006KT 10SM FEW006 BKN090 OVC140 22/21 A2984 RMK AO2 SLP104
                 T02220211 55013 $ =
2018-08-18 04:22 METAR KBDL 180822Z 15004KT 10SM FEW007 BKN160 OVC210 22/21 A2984 RMK AO2
                 T02220211 $ =
2018-08-18 03:51 METAR KBDL 180751Z 19005KT 10SM FEW085 BKN160 BKN210 22/21 A2984 RMK AO2 SLP104
                 T02220211 $ =
2018-08-18 02:51 METAR KBDL 180651Z 19008KT 10SM FEW035 SCT085 OVC190 22/21 A2986 RMK AO2 SLP111
                 T02220211 $ =
2018-08-18 01:51 METAR KBDL 180551Z 20010KT 10SM BKN065 BKN080 OVC100 23/22 A2988 RMK AO2 RAE0456
                 SLP117 BINOVC P0000 60024 T02280217 10256 20222 58013 $ =
2018-08-18 00:51 METAR KBDL 180451Z 22009KT 10SM -RA BKN120 OVC140 22/21 A2991 RMK AO2 LTG DSNT
                 SW TSE26 SLP125 PCPN VRY LGT P0008 T02220211 403170200 $ =
2018-08-18 00:28 METAR KBDL 180428Z 20007KT 9SM -RA BKN110 OVC140 23/21 A2990 RMK AO2 LTG DSNT NE
                 AND E TSE26 P0007 T02280211 $ =
2018-08-17 23:51 METAR KBDL 180351Z 22010KT 8SM -TSRA FEW021CB BKN100 BKN120 OVC140 23/22 A2992
                 RMK AO2 LTG DSNT ALQDS SLP132 FRQ LTGICCCCA OHD-E TS OHD-E MOV NE P0007
                 T02330217 $ =
2018-08-17 22:51 METAR KBDL 180251Z 22011KT 7SM TSRA FEW017CB BKN090 OVC110 23/22 A2992 RMK AO2
                 LTG DSNT W-NE SLP130 TSB11 OCNL LTGICCCCG OHD TS OHD MOV NE P0009 60009
                 T02330222 58002 $ =
2018-08-17 22:11 METAR KBDL 180211Z COR 21005KT 7SM -TSRA SCT050CB SCT090 BKN110 OVC140 24/23
                 A2993 =
2018-08-17 21:51 METAR KBDL 180151Z 20007KT 8SM -RA FEW045 OVC100 25/23 A2993 RMK AO2 LTG DSNT
                 SW-N RAB48 SLP135 CB DSNT SW AND NW P0000 T02500228 $ =
2018-08-17 20:51 METAR KBDL 180051Z 18008KT 10SM OVC110 26/23 A2994 RMK AO2 LTG DSNT NW SLP138
                 T02560228 $ =
2018-08-17 19:51 METAR KBDL 172351Z 17005KT 9SM SCT070 BKN130 BKN230 26/23 A2993 RMK AO2 LTG DSNT
                 W AND NW SLP132 CB DSNT NW 60014 T02560233 10317 20250 58005 $ =
2018-08-17 18:51 METAR KBDL 172251Z 18008KT 8SM FEW046 BKN110 BKN170 BKN240 26/24 A2992 RMK AO2
                 LTG DSNT W AND NW RAE14 TSE17 SLP132 P0006 T02610239 $ =
2018-08-17 18:19 METAR KBDL 172219Z 22007KT 8SM SCT029 BKN110 BKN170 BKN230 BKN250 26/24 A2994
                 RMK AO2 LTG DSNT N RAE14 TSE17 P0006 T02610244 $ =
2018-08-17 17:51 METAR KBDL 172151Z 23007KT 5SM R06/5000VP6000FT +TSRA SCT036CB BKN100 OVC120
                 27/24 A2995 RMK AO2 LTG DSNT NE AND S AND SW RAB17 TSB22 SLP141 OCNL LTGICCCCG
                 S-SW TS S-SW MOV NE P0001 T02670239 $ =
2018-08-17 17:23 METAR KBDL 172123Z 20010KT 7SM -TSRA FEW043CB FEW100 BKN170 BKN200 28/23 A2995
                 RMK AO2 LTG DSNT SW RAB17 TSB22 OCNL LTGICCC SW AND NW TS SW AND NW MOV NE P0000
                 T02830228 =
2018-08-17 16:51 METAR KBDL 172051Z 19012KT 10SM FEW043CB BKN120 BKN230 30/22 A2994 RMK AO2 LTG
                 DSNT SW AND W SLP137 CB SW MOV NE 60007 T03000222 56023 =
2018-08-17 15:51 METAR KBDL 171951Z 18009G16KT 9SM FEW042 FEW065 SCT150 BKN250 32/22 A2995 RMK
                 AO2 SLP141 T03170222 =

Support USWX by starting your Amazon purchase here.